Abbeville, AL

6:18 PM CST on March 04, 2015 (GMT -0600)
APRSWXNET Edwin AL US | Change Station
CLOSE
Current Station
Personal Weather Station
Location: Clopton, AL
Elevation: 364 ft
Nearby Weather Stations

Elev 364 ft 31.65 °N, 85.35 °W | Updated 29 minutes ago

Overcast
Overcast
74 °F
Feels Like 73 °F
N
0
Wind Variable Wind from SSW
Gusts 10.0 mph

Today
High -- | Low -- °F
--% Chance of Precip.
Yesterday
High -- | Low -- °F
Precip. -- in
6:04 AM 5:41 PM
Waxing Gibbous, 99% visible
Pressure 30.00 in
Visibility 10.0 miles
Clouds Overcast 7500 ft
Heat Index 73 °F
Dew Point 70 °F
Humidity 86%
Rainfall 0.00 in
Snow Depth Not available.
UV 0 out of 12
Pollen 10.10 out of 12
Air Quality Not available.
Flu Activity Not available.
METAR KDHN 042353Z 19009KT 10SM OVC075 22/18 A3001 RMK AO2 SLP157 T02220178 10267 20222 55006 $

More Conditions Fewer Conditions

Pressure 30.00 in
Visibility 10.0 miles
Clouds Overcast 7500 ft
Heat Index 73 °F
Dew Point 70 °F
Humidity 86%
Rainfall 0.00 in
Snow Depth Not available.
UV 0 out of 12
Pollen 10.10 out of 12
Air Quality Not available.
Flu Activity Not available.
METAR KDHN 042353Z 19009KT 10SM OVC075 22/18 A3001 RMK AO2 SLP157 T02220178 10267 20222 55006 $

More Conditions Fewer Conditions

10-Day Weather Forecast

Almanac

Astronomy

Mar. 04, 2015 Rise Set
Actual Time
Civil Twilight
Nautical Twilight
Astronomical Twilight
Moon
Length of Visible Light
Length of Day
Tomorrow will be .
, % of the Moon is Illuminated

Today's Extremes

State Highs State Lows

Community

WunderPhotos

Upload Photos

1,802,601 photos uploaded!

WunderBlogs® & News

Nearby

Air Quality

  Air Quality AQ Index Pollutant
Not available.

Snow Depth

Station Depth Elevation

Earthquake Activity

City Distance Mag. Time & Date
Minimum magnitude displayed is 2.5.

Coastal Water Temperatures

Place Temperature

Nearby Weather Stations